createdAt,value
2023-04-27T00:02:59.243Z,12.10
2023-04-27T00:08:23.581Z,8.60
2023-04-27T00:13:49.462Z,10.40
2023-04-27T00:19:16.121Z,12.40
2023-04-27T00:24:42.030Z,9.50
2023-04-27T00:30:08.492Z,7.80
2023-04-27T00:35:35.609Z,8.70
2023-04-27T00:41:07.432Z,8.40
2023-04-27T00:46:33.700Z,9.20
2023-04-27T00:51:59.385Z,8.20
2023-04-27T00:57:23.737Z,6.00
2023-04-27T01:02:49.679Z,4.80
2023-04-27T01:08:14.931Z,12.60
2023-04-27T01:13:39.942Z,9.90
2023-04-27T01:19:06.069Z,8.50
2023-04-27T01:24:31.656Z,7.70
2023-04-27T01:29:56.347Z,8.50
2023-04-27T01:35:21.836Z,9.00
2023-04-27T01:40:46.366Z,7.90
2023-04-27T01:46:12.319Z,10.20
2023-04-27T01:51:37.311Z,11.80
2023-04-27T01:57:02.225Z,8.00
2023-04-27T02:02:26.689Z,6.80
2023-04-27T02:07:51.471Z,7.70
2023-04-27T02:13:15.435Z,6.30
2023-04-27T02:18:39.813Z,13.20
2023-04-27T02:24:08.439Z,7.50
2023-04-27T02:29:33.307Z,10.30
2023-04-27T02:34:58.236Z,8.00
2023-04-27T02:40:24.640Z,8.30
2023-04-27T02:45:48.611Z,7.40
2023-04-27T02:51:13.306Z,5.80
2023-04-27T02:56:38.612Z,6.90
2023-04-27T03:02:03.351Z,11.60
2023-04-27T03:07:27.693Z,6.50
2023-04-27T03:12:51.985Z,7.00
2023-04-27T03:18:16.216Z,8.40
2023-04-27T03:23:40.613Z,6.90
2023-04-27T03:29:07.099Z,4.90
2023-04-27T03:34:32.572Z,6.80
2023-04-27T03:39:58.026Z,7.30
2023-04-27T03:45:22.815Z,7.50
2023-04-27T03:50:47.872Z,6.40
2023-04-27T03:56:12.877Z,11.30
2023-04-27T04:01:37.976Z,9.00
2023-04-27T04:07:02.963Z,10.40
2023-04-27T04:12:27.122Z,6.70
2023-04-27T04:17:51.598Z,5.90
2023-04-27T04:23:16.314Z,12.20
2023-04-27T04:28:41.084Z,8.60
2023-04-27T04:34:05.676Z,4.80
2023-04-27T04:39:34.250Z,14.60
2023-04-27T04:44:59.592Z,7.30
2023-04-27T04:50:23.829Z,6.00
2023-04-27T04:55:48.815Z,8.20
2023-04-27T05:01:13.460Z,6.50
2023-04-27T05:06:40.250Z,5.00
2023-04-27T05:12:06.025Z,11.00
2023-04-27T05:17:31.109Z,4.20
2023-04-27T05:22:57.151Z,10.70
2023-04-27T05:28:21.562Z,12.60
2023-04-27T05:33:45.847Z,13.30
2023-04-27T05:39:11.748Z,11.90
2023-04-27T05:44:36.701Z,11.40
2023-04-27T05:50:01.576Z,11.20
2023-04-27T05:55:25.598Z,8.90
2023-04-27T06:00:50.096Z,7.90
2023-04-27T06:06:14.753Z,9.50
2023-04-27T06:11:39.619Z,7.10
2023-04-27T06:17:05.313Z,6.40
2023-04-27T06:22:53.709Z,6.70
2023-04-27T06:28:20.592Z,8.00
2023-04-27T06:33:45.032Z,12.10
2023-04-27T06:39:08.980Z,8.70
2023-04-27T06:44:33.973Z,9.10
2023-04-27T06:49:58.597Z,11.00
2023-04-27T06:55:23.036Z,11.40
2023-04-27T07:00:47.912Z,9.90
2023-04-27T07:06:12.157Z,8.00
2023-04-27T07:11:36.981Z,9.20
2023-04-27T07:17:02.110Z,11.00
2023-04-27T07:22:27.130Z,9.30
2023-04-27T07:27:51.476Z,13.20
2023-04-27T07:33:16.109Z,6.40
2023-04-27T07:38:40.146Z,6.60
2023-04-27T07:44:05.624Z,6.30
2023-04-27T07:49:30.936Z,5.10
2023-04-27T07:54:57.033Z,6.40
2023-04-27T08:00:22.705Z,9.40
2023-04-27T08:05:47.737Z,5.20
2023-04-27T08:11:13.522Z,6.80
2023-04-27T08:16:38.636Z,6.20
2023-04-27T08:22:07.398Z,4.10
2023-04-27T08:27:34.059Z,5.60
2023-04-27T08:32:58.610Z,6.30
2023-04-27T08:38:25.008Z,5.20
2023-04-27T08:43:51.895Z,9.10
2023-04-27T08:49:16.994Z,8.50
2023-04-27T08:54:44.176Z,5.60
2023-04-27T09:00:13.603Z,7.80
2023-04-27T09:06:00.632Z,4.70
2023-04-27T09:11:34.313Z,5.00
2023-04-27T09:17:01.266Z,6.40
2023-04-27T09:22:25.373Z,5.90
2023-04-27T09:27:53.854Z,4.20
2023-04-27T09:33:24.609Z,4.60
2023-04-27T09:38:50.017Z,6.40
2023-04-27T09:44:15.691Z,5.90
2023-04-27T09:49:40.100Z,6.30
2023-04-27T09:55:09.940Z,5.40
2023-04-27T10:06:47.828Z,5.10
2023-04-27T10:12:18.351Z,6.20
2023-04-27T10:17:59.742Z,9.30
2023-04-27T10:23:28.531Z,11.20
2023-04-27T10:29:10.592Z,8.30
2023-04-27T10:34:39.382Z,6.20
2023-04-27T10:40:10.791Z,6.30
2023-04-27T10:45:35.059Z,5.20
2023-04-27T10:51:02.046Z,4.70
2023-04-27T10:56:27.032Z,7.90
2023-04-27T11:01:51.883Z,5.40
2023-04-27T11:07:25.359Z,3.90
2023-04-27T11:12:51.605Z,4.40
2023-04-27T11:18:18.226Z,3.50
2023-04-27T11:23:43.265Z,2.60
2023-04-27T11:29:14.321Z,2.60
2023-04-27T11:34:39.185Z,3.30
2023-04-27T11:40:06.508Z,4.50
2023-04-27T11:45:31.458Z,5.40
2023-04-27T11:50:59.584Z,4.80
2023-04-27T11:56:23.718Z,6.60
2023-04-27T12:01:47.722Z,5.30
2023-04-27T12:07:12.839Z,5.80
2023-04-27T12:12:39.162Z,5.50
2023-04-27T12:18:04.839Z,4.60
2023-04-27T12:23:29.824Z,8.00
2023-04-27T12:28:54.215Z,5.20
2023-04-27T12:34:20.896Z,6.30
2023-04-27T12:39:45.207Z,4.10
2023-04-27T12:45:12.128Z,3.80
2023-04-27T12:50:41.334Z,4.70
2023-04-27T12:56:07.125Z,8.80
2023-04-27T13:01:32.811Z,5.70
2023-04-27T13:07:02.618Z,3.60
2023-04-27T13:12:28.432Z,5.00
2023-04-27T13:17:54.916Z,6.70
2023-04-27T13:23:20.000Z,6.30
2023-04-27T13:28:44.551Z,5.00
2023-04-27T13:34:16.175Z,8.00
2023-04-27T13:39:42.729Z,9.20
2023-04-27T13:45:07.405Z,6.00
2023-04-27T13:50:32.839Z,3.70
2023-04-27T13:55:59.147Z,5.90
2023-04-27T14:01:23.759Z,4.40
2023-04-27T14:06:49.187Z,4.60
2023-04-27T14:12:13.976Z,3.30
2023-04-27T14:17:38.289Z,3.70
2023-04-27T14:23:06.056Z,6.90
2023-04-27T14:28:34.989Z,5.00
2023-04-27T14:34:02.324Z,4.50
2023-04-27T14:39:30.736Z,7.80
2023-04-27T14:44:57.240Z,3.80
2023-04-27T14:50:23.808Z,8.80
2023-04-27T14:55:53.289Z,4.10
2023-04-27T15:01:18.844Z,4.50
2023-04-27T15:06:46.140Z,3.60
2023-04-27T15:12:17.338Z,6.00
2023-04-27T15:17:44.702Z,7.50
2023-04-27T15:23:15.181Z,3.70
2023-04-27T15:28:45.746Z,8.50
2023-04-27T15:34:11.603Z,4.90
2023-04-27T15:39:37.350Z,5.80
2023-04-27T15:45:02.629Z,5.10
2023-04-27T15:50:26.836Z,7.70
2023-04-27T15:55:51.243Z,5.10
2023-04-27T16:01:16.499Z,5.20
2023-04-27T16:06:41.522Z,4.90
2023-04-27T16:12:06.369Z,6.20
2023-04-27T16:17:33.607Z,4.70
2023-04-27T16:22:57.831Z,4.40
2023-04-27T16:28:22.024Z,3.50
2023-04-27T16:33:48.612Z,6.70
2023-04-27T16:39:14.407Z,4.10
2023-04-27T16:44:38.962Z,5.00
2023-04-27T16:50:03.456Z,4.50
2023-04-27T16:55:28.949Z,8.70
2023-04-27T17:00:53.928Z,7.70
2023-04-27T17:06:19.178Z,6.10
2023-04-27T17:11:43.661Z,11.70
2023-04-27T17:17:07.776Z,9.10
2023-04-27T17:22:33.419Z,10.70
2023-04-27T17:27:59.558Z,14.80
2023-04-27T17:33:25.992Z,14.20
2023-04-27T17:38:51.068Z,12.50
2023-04-27T17:44:16.204Z,5.80
2023-04-27T17:49:40.811Z,6.40
2023-04-27T17:55:06.005Z,3.50
2023-04-27T18:00:31.294Z,11.10
2023-04-27T18:05:55.895Z,10.80
2023-04-27T18:11:21.548Z,24.00
2023-04-27T18:16:46.242Z,25.30
2023-04-27T18:22:10.972Z,15.00
2023-04-27T18:27:37.994Z,8.50
2023-04-27T18:33:02.453Z,11.50
2023-04-27T18:38:26.586Z,9.10
2023-04-27T18:43:52.610Z,9.30
2023-04-27T18:49:19.352Z,7.40
2023-04-27T18:54:43.652Z,5.80
2023-04-27T19:00:09.537Z,6.00
2023-04-27T19:05:34.386Z,5.70
2023-04-27T19:11:00.252Z,7.80
2023-04-27T19:16:26.716Z,5.10
2023-04-27T19:21:51.586Z,6.00
2023-04-27T19:27:16.076Z,5.10
2023-04-27T19:32:40.210Z,6.30
2023-04-27T19:38:05.078Z,4.80
2023-04-27T19:43:29.727Z,6.20
2023-04-27T19:48:56.931Z,7.30
2023-04-27T19:54:23.232Z,6.20
2023-04-27T19:59:47.959Z,9.40
2023-04-27T20:05:15.426Z,9.30
2023-04-27T20:10:41.380Z,10.20
2023-04-27T20:16:06.872Z,10.10
2023-04-27T20:21:33.003Z,6.50
2023-04-27T20:26:57.893Z,10.90
2023-04-27T20:32:22.238Z,11.40
2023-04-27T20:37:47.458Z,7.30
2023-04-27T20:43:13.841Z,5.60
2023-04-27T20:48:38.489Z,6.50
2023-04-27T20:54:03.526Z,10.30
2023-04-27T20:59:28.407Z,8.70
2023-04-27T21:04:53.456Z,8.10
2023-04-27T21:10:17.837Z,13.20
2023-04-27T21:15:41.828Z,12.80
2023-04-27T21:21:06.917Z,13.80
2023-04-27T21:26:31.919Z,13.50
2023-04-27T21:31:56.876Z,21.30
2023-04-27T21:37:21.510Z,18.70
2023-04-27T21:42:45.849Z,18.00
2023-04-27T21:48:10.551Z,16.50
2023-04-27T21:53:34.940Z,18.60
2023-04-27T21:59:00.126Z,13.80
2023-04-27T22:04:26.000Z,14.90
2023-04-27T22:09:50.902Z,14.90
2023-04-27T22:15:15.394Z,20.80
2023-04-27T22:20:39.577Z,22.90
2023-04-27T22:26:04.319Z,26.20
2023-04-27T22:31:32.393Z,26.20
2023-04-27T22:36:57.413Z,23.50
2023-04-27T22:42:21.730Z,39.60
2023-04-27T22:47:46.371Z,26.40
2023-04-27T22:53:10.770Z,23.60
2023-04-27T22:58:36.332Z,19.60
2023-04-27T23:04:02.561Z,19.20
2023-04-27T23:09:28.476Z,20.50
2023-04-27T23:14:53.198Z,19.90
2023-04-27T23:20:28.195Z,20.60
2023-04-27T23:25:53.180Z,18.30
2023-04-27T23:31:17.758Z,18.70
2023-04-27T23:36:43.154Z,19.70
2023-04-27T23:42:07.995Z,15.90
2023-04-27T23:47:34.524Z,18.60
2023-04-27T23:52:58.909Z,19.80
2023-04-27T23:58:25.158Z,19.10
